createdAt,value
2023-01-10T00:02:09.583Z,8.28
2023-01-10T00:04:37.955Z,8.30
2023-01-10T00:07:05.945Z,8.22
2023-01-10T00:09:34.037Z,7.75
2023-01-10T00:12:21.683Z,7.74
2023-01-10T00:14:50.045Z,8.20
2023-01-10T00:17:18.979Z,8.15
2023-01-10T00:19:46.933Z,7.89
2023-01-10T00:22:14.929Z,8.03
2023-01-10T00:24:44.291Z,8.03
2023-01-10T00:27:13.088Z,8.29
2023-01-10T00:29:41.497Z,8.16
2023-01-10T00:32:09.833Z,8.02
2023-01-10T00:34:37.882Z,8.30
2023-01-10T00:37:05.844Z,8.54
2023-01-10T00:39:34.075Z,8.62
2023-01-10T00:42:20.487Z,8.31
2023-01-10T00:44:49.279Z,8.46
2023-01-10T00:47:17.396Z,8.01
2023-01-10T00:49:45.242Z,7.93
2023-01-10T00:52:13.752Z,7.77
2023-01-10T00:54:41.673Z,7.71
2023-01-10T00:57:09.672Z,7.67
2023-01-10T00:59:38.014Z,7.49
2023-01-10T01:02:05.927Z,7.43
2023-01-10T01:04:34.699Z,7.68
2023-01-10T01:07:03.248Z,7.75
2023-01-10T01:09:31.292Z,7.66
2023-01-10T01:11:59.166Z,7.69
2023-01-10T01:14:27.485Z,7.59
2023-01-10T01:16:55.691Z,7.62
2023-01-10T01:19:23.648Z,6.97
2023-01-10T01:21:51.896Z,7.05
2023-01-10T01:24:21.562Z,7.46
2023-01-10T01:26:49.442Z,7.45
2023-01-10T01:29:18.187Z,7.28
2023-01-10T01:31:46.459Z,7.40
2023-01-10T01:34:14.886Z,6.80
2023-01-10T01:36:43.297Z,7.03
2023-01-10T01:39:11.176Z,6.94
2023-01-10T01:41:57.604Z,6.74
2023-01-10T01:44:32.642Z,7.11
2023-01-10T01:47:03.581Z,6.75
2023-01-10T01:49:33.402Z,7.15
2023-01-10T01:52:05.710Z,6.78
2023-01-10T01:54:34.494Z,6.86
2023-01-10T01:57:15.481Z,6.96
2023-01-10T01:59:45.631Z,6.53
2023-01-10T02:02:20.653Z,6.45
2023-01-10T02:04:57.124Z,6.34
2023-01-10T02:07:26.815Z,6.15
2023-01-10T02:10:09.973Z,6.26
2023-01-10T02:12:38.790Z,6.74
2023-01-10T02:15:07.295Z,6.31
2023-01-10T02:17:35.241Z,6.19
2023-01-10T02:20:08.750Z,6.79
2023-01-10T02:22:58.039Z,6.39
2023-01-10T02:25:45.255Z,6.13
2023-01-10T02:28:47.122Z,6.27
2023-01-10T02:31:21.373Z,6.29
2023-01-10T02:34:14.550Z,5.99
2023-01-10T02:37:06.931Z,6.23
2023-01-10T02:39:56.813Z,6.20
2023-01-10T02:42:40.216Z,5.91
2023-01-10T02:45:23.074Z,6.05
2023-01-10T02:47:51.354Z,6.40
2023-01-10T02:50:45.963Z,6.38
2023-01-10T02:53:14.200Z,6.07
2023-01-10T02:55:54.887Z,6.14
2023-01-10T02:58:46.091Z,6.14
2023-01-10T03:01:44.869Z,6.06
2023-01-10T03:04:19.054Z,6.26
2023-01-10T03:07:02.205Z,6.06
2023-01-10T03:09:36.342Z,6.11
2023-01-10T03:12:14.800Z,5.95
2023-01-10T03:14:43.987Z,5.62
2023-01-10T03:17:12.631Z,6.05
2023-01-10T03:19:57.094Z,5.85
2023-01-10T03:22:26.862Z,6.17
2023-01-10T03:24:56.867Z,6.02
2023-01-10T03:27:25.124Z,5.79
2023-01-10T03:29:57.085Z,5.83
2023-01-10T03:32:27.483Z,5.80
2023-01-10T03:34:55.689Z,5.71
2023-01-10T03:37:29.483Z,5.85
2023-01-10T03:40:05.924Z,5.73
2023-01-10T03:43:10.263Z,5.85
2023-01-10T03:46:05.563Z,5.88
2023-01-10T03:48:37.452Z,6.26
2023-01-10T03:51:06.891Z,5.82
2023-01-10T03:53:36.731Z,6.04
2023-01-10T03:56:05.151Z,5.92
2023-01-10T03:58:34.119Z,5.73
2023-01-10T04:01:02.660Z,5.93
2023-01-10T04:03:31.088Z,6.01
2023-01-10T04:05:59.053Z,5.86
2023-01-10T04:08:26.902Z,5.86
2023-01-10T04:10:55.405Z,6.05
2023-01-10T04:13:23.381Z,6.00
2023-01-10T04:15:51.813Z,5.97
2023-01-10T04:18:20.356Z,5.93
2023-01-10T04:20:48.649Z,6.07
2023-01-10T04:23:17.145Z,6.21
2023-01-10T04:25:48.025Z,6.00
2023-01-10T04:28:16.027Z,6.06
2023-01-10T04:30:43.988Z,5.81
2023-01-10T04:33:12.740Z,5.82
2023-01-10T04:35:40.592Z,5.82
2023-01-10T04:38:08.548Z,5.70
2023-01-10T04:40:36.919Z,5.89
2023-01-10T04:43:04.851Z,5.75
2023-01-10T04:45:32.936Z,5.71
2023-01-10T04:48:01.291Z,5.86
2023-01-10T04:50:29.424Z,5.71
2023-01-10T04:52:57.412Z,5.85
2023-01-10T04:55:25.683Z,6.14
2023-01-10T04:57:53.720Z,5.84
2023-01-10T05:00:21.584Z,5.89
2023-01-10T05:02:49.977Z,5.89
2023-01-10T05:05:18.035Z,5.85
2023-01-10T05:07:47.275Z,5.81
2023-01-10T05:10:15.901Z,6.06
2023-01-10T05:12:45.847Z,5.58
2023-01-10T05:15:14.044Z,5.83
2023-01-10T05:17:42.429Z,6.08
2023-01-10T05:20:11.176Z,5.99
2023-01-10T05:22:39.355Z,5.99
2023-01-10T05:25:07.901Z,6.01
2023-01-10T05:27:35.816Z,5.94
2023-01-10T05:30:04.010Z,6.10
2023-01-10T05:32:32.405Z,6.02
2023-01-10T05:35:00.505Z,5.98
2023-01-10T05:37:28.492Z,5.82
2023-01-10T05:39:56.823Z,5.78
2023-01-10T05:42:26.558Z,5.55
2023-01-10T05:44:54.434Z,5.73
2023-01-10T05:47:22.843Z,5.63
2023-01-10T05:49:50.993Z,5.73
2023-01-10T05:52:18.989Z,5.78
2023-01-10T05:54:47.364Z,5.65
2023-01-10T05:57:15.357Z,5.69
2023-01-10T05:59:43.371Z,5.56
2023-01-10T06:02:11.774Z,5.53
2023-01-10T06:04:40.123Z,5.34
2023-01-10T06:07:08.119Z,5.59
2023-01-10T06:09:36.097Z,5.56
2023-01-10T06:12:04.639Z,5.35
2023-01-10T06:14:32.665Z,5.45
2023-01-10T06:17:00.668Z,5.49
2023-01-10T06:19:29.033Z,5.41
2023-01-10T06:21:57.117Z,5.51
2023-01-10T06:24:25.061Z,5.48
2023-01-10T06:26:53.383Z,5.48
2023-01-10T06:29:21.454Z,5.36
2023-01-10T06:31:49.534Z,5.50
2023-01-10T06:34:18.047Z,5.31
2023-01-10T06:36:46.328Z,5.43
2023-01-10T06:39:14.743Z,5.43
2023-01-10T06:41:44.158Z,5.37
2023-01-10T06:44:12.361Z,5.45
2023-01-10T06:46:41.108Z,5.05
2023-01-10T06:49:10.002Z,5.26
2023-01-10T06:51:38.004Z,5.24
2023-01-10T06:54:07.045Z,5.21
2023-01-10T06:56:36.030Z,5.35
2023-01-10T06:59:03.925Z,5.27
2023-01-10T07:01:32.098Z,5.24
2023-01-10T07:04:00.514Z,5.11
2023-01-10T07:06:28.463Z,5.19
2023-01-10T07:08:56.790Z,5.35
2023-01-10T07:11:25.079Z,5.32
2023-01-10T07:13:54.270Z,4.88
2023-01-10T07:16:22.184Z,5.02
2023-01-10T07:18:50.541Z,5.12
2023-01-10T07:21:20.114Z,5.07
2023-01-10T07:23:50.252Z,5.19
2023-01-10T07:26:19.753Z,5.13
2023-01-10T07:28:51.250Z,5.19
2023-01-10T07:31:20.718Z,5.19
2023-01-10T07:33:48.801Z,5.31
2023-01-10T07:36:17.269Z,5.18
2023-01-10T07:38:45.736Z,5.02
2023-01-10T07:41:13.752Z,5.02
2023-01-10T07:43:41.792Z,5.15
2023-01-10T07:46:12.492Z,5.05
2023-01-10T07:48:42.260Z,5.10
2023-01-10T07:51:10.742Z,5.24
2023-01-10T07:53:39.173Z,5.31
2023-01-10T07:56:07.601Z,5.33
2023-01-10T07:58:36.157Z,5.22
2023-01-10T08:01:05.453Z,5.36
2023-01-10T08:03:34.358Z,5.48
2023-01-10T08:06:06.687Z,5.26
2023-01-10T08:08:36.756Z,5.34
2023-01-10T08:11:05.366Z,5.23
2023-01-10T08:13:34.791Z,5.38
2023-01-10T08:16:07.789Z,5.61
2023-01-10T08:18:36.161Z,5.42
2023-01-10T08:21:04.714Z,5.22
2023-01-10T08:23:32.606Z,5.39
2023-01-10T08:26:00.852Z,5.53
2023-01-10T08:28:29.550Z,5.38
2023-01-10T08:30:58.401Z,5.23
2023-01-10T08:33:27.763Z,5.24
2023-01-10T08:35:56.125Z,5.29
2023-01-10T08:38:24.094Z,5.30
2023-01-10T08:40:53.811Z,5.35
2023-01-10T08:43:22.216Z,5.30
2023-01-10T08:45:50.393Z,5.37
2023-01-10T08:48:19.022Z,5.35
2023-01-10T08:50:47.353Z,5.35
2023-01-10T08:53:15.458Z,5.03
2023-01-10T08:55:43.553Z,5.23
2023-01-10T08:58:12.171Z,5.30
2023-01-10T09:00:41.425Z,5.12
2023-01-10T09:03:11.016Z,5.30
2023-01-10T09:05:39.374Z,5.19
2023-01-10T09:08:08.891Z,5.11
2023-01-10T09:10:36.931Z,5.32
2023-01-10T09:13:06.142Z,5.13
2023-01-10T09:15:36.023Z,5.37
2023-01-10T09:18:06.252Z,5.37
2023-01-10T09:20:37.115Z,5.22
2023-01-10T09:23:13.227Z,4.96
2023-01-10T09:25:42.035Z,5.39
2023-01-10T09:28:10.265Z,5.18
2023-01-10T09:30:38.471Z,5.05
2023-01-10T09:33:07.651Z,5.41
2023-01-10T09:35:38.293Z,5.17
2023-01-10T09:38:10.176Z,5.41
2023-01-10T09:41:12.368Z,5.40
2023-01-10T09:44:14.883Z,5.29
2023-01-10T09:47:08.395Z,4.96
2023-01-10T09:49:57.810Z,5.10
2023-01-10T09:52:33.825Z,5.17
2023-01-10T09:55:27.221Z,5.24
2023-01-10T09:58:01.149Z,5.36
2023-01-10T10:00:51.631Z,5.12
2023-01-10T10:03:43.301Z,4.91
2023-01-10T10:06:13.206Z,5.02
2023-01-10T10:08:42.941Z,5.16
2023-01-10T10:11:31.194Z,4.98
2023-01-10T10:14:38.806Z,5.20
2023-01-10T10:17:22.293Z,5.31
2023-01-10T10:20:12.817Z,5.19
2023-01-10T10:22:55.883Z,5.12
2023-01-10T10:26:03.049Z,4.99
2023-01-10T10:28:59.762Z,5.15
2023-01-10T10:31:47.563Z,5.21
2023-01-10T10:34:30.897Z,5.32
2023-01-10T10:37:17.798Z,5.21
2023-01-10T10:39:58.060Z,5.40
2023-01-10T10:42:34.135Z,5.20
2023-01-10T10:45:11.502Z,4.99
2023-01-10T10:47:42.980Z,5.26
2023-01-10T10:50:23.343Z,5.33
2023-01-10T10:52:51.897Z,5.22
2023-01-10T10:55:31.951Z,5.23
2023-01-10T10:58:02.142Z,5.27
2023-01-10T11:00:30.731Z,5.21
2023-01-10T11:03:12.934Z,5.31
2023-01-10T11:05:44.065Z,5.02
2023-01-10T11:08:13.897Z,5.21
2023-01-10T11:10:44.762Z,5.17
2023-01-10T11:13:20.191Z,5.43
2023-01-10T11:15:49.774Z,5.39
2023-01-10T11:18:28.013Z,5.43
2023-01-10T11:21:07.047Z,5.38
2023-01-10T11:23:56.043Z,5.23
2023-01-10T11:26:34.580Z,5.33
2023-01-10T11:29:16.334Z,5.38
2023-01-10T11:31:46.900Z,5.38
2023-01-10T11:34:21.639Z,5.26
2023-01-10T11:36:58.885Z,5.17
2023-01-10T11:39:27.935Z,5.28
2023-01-10T11:41:58.447Z,5.10
2023-01-10T11:44:29.055Z,5.37
2023-01-10T11:47:00.124Z,5.20
2023-01-10T11:49:42.081Z,5.05
2023-01-10T11:52:44.113Z,5.23
2023-01-10T11:55:20.530Z,5.59
2023-01-10T11:57:59.775Z,5.42
2023-01-10T12:00:33.037Z,5.15
2023-01-10T12:03:01.841Z,5.44
2023-01-10T12:05:32.020Z,5.66
2023-01-10T12:08:06.770Z,5.42
2023-01-10T12:10:35.711Z,5.23
2023-01-10T12:13:17.383Z,5.19
2023-01-10T12:15:48.944Z,5.50
2023-01-10T12:18:21.960Z,5.46
2023-01-10T12:20:54.009Z,5.44
2023-01-10T12:23:23.615Z,5.26
2023-01-10T12:26:07.155Z,5.26
2023-01-10T12:28:43.115Z,5.49
2023-01-10T12:31:14.961Z,5.21
2023-01-10T12:33:48.161Z,5.47
2023-01-10T12:36:37.193Z,5.26
2023-01-10T12:39:27.538Z,5.60
2023-01-10T12:42:24.009Z,5.56
2023-01-10T12:45:15.505Z,5.54
2023-01-10T12:47:47.125Z,5.49
2023-01-10T12:50:33.781Z,5.22
2023-01-10T12:53:04.294Z,5.51
2023-01-10T12:55:38.193Z,5.67
2023-01-10T12:58:09.996Z,5.56
2023-01-10T13:00:48.115Z,5.51
2023-01-10T13:03:23.030Z,5.70
2023-01-10T13:05:55.049Z,5.57
2023-01-10T13:08:25.841Z,5.61
2023-01-10T13:10:56.132Z,5.47
2023-01-10T13:13:41.468Z,5.64
2023-01-10T13:16:23.870Z,5.39
2023-01-10T13:19:12.095Z,5.29
2023-01-10T13:21:41.772Z,5.41
2023-01-10T13:24:17.552Z,5.32
2023-01-10T13:26:57.875Z,5.25
2023-01-10T13:29:38.984Z,5.40
2023-01-10T13:32:25.711Z,5.52
2023-01-10T13:34:54.469Z,5.28
2023-01-10T13:37:35.791Z,5.61
2023-01-10T13:40:05.923Z,5.44
2023-01-10T13:42:54.354Z,5.75
2023-01-10T13:45:29.698Z,5.66
2023-01-10T13:48:03.705Z,5.42
2023-01-10T13:50:40.058Z,5.40
2023-01-10T13:53:09.095Z,5.58
2023-01-10T13:55:42.676Z,5.74
2023-01-10T13:58:16.244Z,5.30
2023-01-10T14:01:16.195Z,5.75
2023-01-10T14:03:58.621Z,5.61
2023-01-10T14:06:29.500Z,5.72
2023-01-10T14:08:59.535Z,5.69
2023-01-10T14:11:45.814Z,5.68
2023-01-10T14:14:34.444Z,5.63
2023-01-10T14:17:25.068Z,5.59
2023-01-10T14:20:01.257Z,5.69
2023-01-10T14:22:31.559Z,5.80
2023-01-10T14:25:01.905Z,5.55
2023-01-10T14:27:44.343Z,5.61
2023-01-10T14:30:22.950Z,5.61
2023-01-10T14:32:53.871Z,5.60
2023-01-10T14:35:27.874Z,5.71
2023-01-10T14:38:00.108Z,5.92
2023-01-10T14:40:49.665Z,5.78
2023-01-10T14:43:22.051Z,5.63
2023-01-10T14:45:57.917Z,5.74
2023-01-10T14:48:31.190Z,5.89
2023-01-10T14:51:21.835Z,5.70
2023-01-10T14:54:01.690Z,5.79
2023-01-10T14:56:37.800Z,5.94
2023-01-10T14:59:36.162Z,6.09
2023-01-10T15:02:28.678Z,5.72
2023-01-10T15:05:01.222Z,5.94
2023-01-10T15:07:29.618Z,5.95
2023-01-10T15:10:03.083Z,5.68
2023-01-10T15:12:33.894Z,5.65
2023-01-10T15:15:13.809Z,5.88
2023-01-10T15:17:42.631Z,5.68
2023-01-10T15:20:15.703Z,6.06
2023-01-10T15:22:48.225Z,5.75
2023-01-10T15:25:19.014Z,5.88
2023-01-10T15:27:50.320Z,5.82
2023-01-10T15:30:31.164Z,6.05
2023-01-10T15:33:04.709Z,6.01
2023-01-10T15:35:36.668Z,5.72
2023-01-10T15:38:13.731Z,5.84
2023-01-10T15:40:44.249Z,5.79
2023-01-10T15:43:23.794Z,5.98
2023-01-10T15:45:53.426Z,5.87
2023-01-10T15:48:29.141Z,6.04
2023-01-10T15:51:25.258Z,6.09
2023-01-10T15:54:05.708Z,6.01
2023-01-10T15:56:40.771Z,6.04
2023-01-10T15:59:29.012Z,5.89
2023-01-10T16:02:22.654Z,5.88
2023-01-10T16:04:54.993Z,5.97
2023-01-10T16:07:31.600Z,5.77
2023-01-10T16:10:13.348Z,5.88
2023-01-10T16:13:01.342Z,5.64
2023-01-10T16:15:44.120Z,5.77
2023-01-10T16:18:12.152Z,5.60
2023-01-10T16:20:45.916Z,5.91
2023-01-10T16:23:17.765Z,6.06
2023-01-10T16:25:48.309Z,5.86
2023-01-10T16:28:18.118Z,6.18
2023-01-10T16:30:48.158Z,6.19
2023-01-10T16:33:20.252Z,6.01
2023-01-10T16:35:49.672Z,5.75
2023-01-10T16:38:18.946Z,5.83
2023-01-10T16:41:25.728Z,6.00
2023-01-10T16:43:54.220Z,6.10
2023-01-10T16:46:24.290Z,5.95
2023-01-10T16:48:53.562Z,5.91
2023-01-10T16:51:32.671Z,6.11
2023-01-10T16:54:01.311Z,6.02
2023-01-10T16:56:30.721Z,5.91
2023-01-10T16:58:59.128Z,6.17
2023-01-10T17:01:31.340Z,6.09
2023-01-10T17:03:59.846Z,6.21
2023-01-10T17:06:28.977Z,6.15
2023-01-10T17:08:56.999Z,6.26
2023-01-10T17:11:34.602Z,6.11
2023-01-10T17:14:04.483Z,6.05
2023-01-10T17:16:33.572Z,6.03
2023-01-10T17:19:01.632Z,6.00
2023-01-10T17:21:29.626Z,6.13
2023-01-10T17:23:58.161Z,6.11
2023-01-10T17:26:26.253Z,6.19
2023-01-10T17:28:54.290Z,6.18
2023-01-10T17:31:22.947Z,6.22
2023-01-10T17:33:51.133Z,6.12
2023-01-10T17:36:19.665Z,6.46
2023-01-10T17:38:48.772Z,6.63
2023-01-10T17:41:16.816Z,5.99
2023-01-10T17:43:44.923Z,6.24
2023-01-10T17:46:14.143Z,6.38
2023-01-10T17:48:42.404Z,6.03
2023-01-10T17:51:13.271Z,6.10
2023-01-10T17:53:41.825Z,6.27
2023-01-10T17:56:10.055Z,6.20
2023-01-10T17:58:38.125Z,6.14
2023-01-10T18:01:08.399Z,6.33
2023-01-10T18:03:36.740Z,6.25
2023-01-10T18:06:05.705Z,6.20
2023-01-10T18:08:35.759Z,6.06
2023-01-10T18:11:04.563Z,6.01
2023-01-10T18:13:32.674Z,6.14
2023-01-10T18:16:01.399Z,6.09
2023-01-10T18:18:30.552Z,6.25
2023-01-10T18:21:02.407Z,6.13
2023-01-10T18:23:32.124Z,6.13
2023-01-10T18:26:04.304Z,6.43
2023-01-10T18:28:41.830Z,6.48
2023-01-10T18:31:10.523Z,6.19
2023-01-10T18:33:39.043Z,6.32
2023-01-10T18:36:08.863Z,6.13
2023-01-10T18:38:37.732Z,6.36
2023-01-10T18:41:06.205Z,6.23
2023-01-10T18:43:34.279Z,6.29
2023-01-10T18:46:03.220Z,5.98
2023-01-10T18:48:31.827Z,6.11
2023-01-10T18:51:01.072Z,6.42
2023-01-10T18:53:29.329Z,6.45
2023-01-10T18:56:04.698Z,6.13
2023-01-10T18:58:35.638Z,6.19
2023-01-10T19:01:14.713Z,6.30
2023-01-10T19:03:43.147Z,6.43
2023-01-10T19:06:14.684Z,6.19
2023-01-10T19:08:43.997Z,5.75
2023-01-10T19:11:15.466Z,6.08
2023-01-10T19:13:44.918Z,6.00
2023-01-10T19:16:30.983Z,6.49
2023-01-10T19:19:02.733Z,6.20
2023-01-10T19:21:32.650Z,6.14
2023-01-10T19:24:06.617Z,6.08
2023-01-10T19:26:49.514Z,5.80
2023-01-10T19:29:18.050Z,6.16
2023-01-10T19:31:48.542Z,6.15
2023-01-10T19:34:17.268Z,6.08
2023-01-10T19:36:45.900Z,6.13
2023-01-10T19:39:15.539Z,6.09
2023-01-10T19:41:43.581Z,6.06
2023-01-10T19:44:13.728Z,6.06
2023-01-10T19:46:51.015Z,6.21
2023-01-10T19:49:21.262Z,6.02
2023-01-10T19:51:55.732Z,6.04
2023-01-10T19:54:27.094Z,6.18
2023-01-10T19:56:56.755Z,6.00
2023-01-10T19:59:25.242Z,6.16
2023-01-10T20:01:53.248Z,6.04
2023-01-10T20:04:24.444Z,6.24
2023-01-10T20:06:52.643Z,6.32
2023-01-10T20:09:20.943Z,6.11
2023-01-10T20:11:49.379Z,6.14
2023-01-10T20:14:20.133Z,6.02
2023-01-10T20:16:49.140Z,6.12
2023-01-10T20:19:17.756Z,5.99
2023-01-10T20:21:45.966Z,5.73
2023-01-10T20:24:17.379Z,6.00
2023-01-10T20:26:47.185Z,6.09
2023-01-10T20:29:15.909Z,6.26
2023-01-10T20:31:46.797Z,6.30
2023-01-10T20:34:15.969Z,6.07
2023-01-10T20:36:44.533Z,6.02
2023-01-10T20:39:12.639Z,6.01
2023-01-10T20:41:41.002Z,5.84
2023-01-10T20:44:09.102Z,5.86
2023-01-10T20:46:37.551Z,5.91
2023-01-10T20:49:06.847Z,6.00
2023-01-10T20:51:35.703Z,5.75
2023-01-10T20:54:08.706Z,5.80
2023-01-10T20:56:38.592Z,5.71
2023-01-10T20:59:07.072Z,5.86
2023-01-10T21:01:36.000Z,5.77
2023-01-10T21:04:06.158Z,5.78
2023-01-10T21:06:35.690Z,5.84
2023-01-10T21:09:05.267Z,5.67
2023-01-10T21:11:44.305Z,5.57
2023-01-10T21:14:22.192Z,5.70
2023-01-10T21:16:51.061Z,5.60
2023-01-10T21:19:19.512Z,5.52
2023-01-10T21:21:47.609Z,5.38
2023-01-10T21:24:16.300Z,5.69
2023-01-10T21:26:44.557Z,5.23
2023-01-10T21:29:13.283Z,5.44
2023-01-10T21:31:41.995Z,5.06
2023-01-10T21:34:10.134Z,5.36
2023-01-10T21:36:38.512Z,5.38
2023-01-10T21:39:06.930Z,5.27
2023-01-10T21:41:53.807Z,5.36
2023-01-10T21:44:22.342Z,5.04
2023-01-10T21:46:51.648Z,5.22
2023-01-10T21:49:21.440Z,5.19
2023-01-10T21:51:49.952Z,5.26
2023-01-10T21:54:18.111Z,5.12
2023-01-10T21:56:46.351Z,5.34
2023-01-10T21:59:15.041Z,5.30
2023-01-10T22:01:43.153Z,5.53
2023-01-10T22:04:13.725Z,5.31
2023-01-10T22:06:43.264Z,5.42
2023-01-10T22:09:11.794Z,5.31
2023-01-10T22:11:39.987Z,5.27
2023-01-10T22:14:08.126Z,5.06
2023-01-10T22:16:36.674Z,5.25
2023-01-10T22:19:04.933Z,5.08
2023-01-10T22:21:33.063Z,5.22
2023-01-10T22:24:01.571Z,5.26
2023-01-10T22:26:29.848Z,5.06
2023-01-10T22:28:58.051Z,4.96
2023-01-10T22:31:26.673Z,5.30
2023-01-10T22:33:54.731Z,5.11
2023-01-10T22:36:23.111Z,5.21
2023-01-10T22:38:51.616Z,5.29
2023-01-10T22:41:27.653Z,5.07
2023-01-10T22:43:56.808Z,5.28
2023-01-10T22:46:25.150Z,5.35
2023-01-10T22:48:53.418Z,4.86
2023-01-10T22:51:23.233Z,5.02
2023-01-10T22:53:53.546Z,5.08
2023-01-10T22:56:24.107Z,4.95
2023-01-10T22:58:52.951Z,5.01
2023-01-10T23:01:22.865Z,4.59
2023-01-10T23:03:51.059Z,4.93
2023-01-10T23:06:19.338Z,4.92
2023-01-10T23:08:48.230Z,4.91
2023-01-10T23:11:18.681Z,4.86
2023-01-10T23:13:48.159Z,4.78
2023-01-10T23:16:20.497Z,4.56
2023-01-10T23:18:49.279Z,4.29
2023-01-10T23:21:17.664Z,4.27
2023-01-10T23:23:45.796Z,4.50
2023-01-10T23:26:14.361Z,4.31
2023-01-10T23:28:47.142Z,4.41
2023-01-10T23:31:17.262Z,4.35
2023-01-10T23:33:45.769Z,4.27
2023-01-10T23:36:13.929Z,4.36
2023-01-10T23:38:41.922Z,4.15
2023-01-10T23:41:10.410Z,4.40
2023-01-10T23:43:38.388Z,4.24
2023-01-10T23:46:07.130Z,3.89
2023-01-10T23:48:35.749Z,4.23
2023-01-10T23:51:03.963Z,4.28
2023-01-10T23:53:32.011Z,4.28
2023-01-10T23:56:06.158Z,4.26
2023-01-10T23:58:34.172Z,4.16
